createdAt,value
2019-04-20T00:02:25.119Z,101219.93
2019-04-20T00:04:57.105Z,101215.75
2019-04-20T00:07:34.279Z,101219.94
2019-04-20T00:10:13.068Z,101208.67
2019-04-20T00:12:53.430Z,101206.85
2019-04-20T00:15:16.011Z,101204.13
2019-04-20T00:17:55.074Z,101200.52
2019-04-20T00:20:29.626Z,101209.95
2019-04-20T00:23:27.803Z,101205.06
2019-04-20T00:26:22.135Z,101195.48
2019-04-20T00:29:06.901Z,101195.97
2019-04-20T00:31:42.094Z,101196.09
2019-04-20T00:34:09.132Z,101199.45
2019-04-20T00:36:36.973Z,101198.30
2019-04-20T00:39:13.169Z,101196.66
2019-04-20T00:41:52.142Z,101192.48
2019-04-20T00:44:26.038Z,101202.28
2019-04-20T00:49:46.114Z,101189.45
2019-04-20T00:52:28.822Z,101189.36
2019-04-20T00:54:41.543Z,101190.48
2019-04-20T00:57:28.093Z,101186.52
2019-04-20T01:00:11.120Z,101187.78
2019-04-20T01:02:36.094Z,101185.93
2019-04-20T01:05:18.067Z,101193.30
2019-04-20T01:08:01.937Z,101186.19
2019-04-20T01:10:38.462Z,101190.67
2019-04-20T01:13:14.008Z,101184.91
2019-04-20T01:15:54.072Z,101188.22
2019-04-20T01:18:18.606Z,101184.36
2019-04-20T01:20:53.562Z,101189.83
2019-04-20T01:23:35.504Z,101186.20
2019-04-20T01:26:07.486Z,101186.19
2019-04-20T01:28:52.795Z,101197.28
2019-04-20T01:31:25.375Z,101189.67
2019-04-20T01:33:58.930Z,101192.83
2019-04-20T01:36:43.007Z,101196.98
2019-04-20T01:39:12.490Z,101192.45
2019-04-20T01:41:32.980Z,101195.70
2019-04-20T01:44:07.141Z,101195.23
2019-04-20T01:46:46.699Z,101196.53
2019-04-20T01:49:19.092Z,101192.93
2019-04-20T01:51:57.683Z,101201.27
2019-04-20T01:54:48.205Z,101200.53
2019-04-20T01:57:25.636Z,101198.93
2019-04-20T13:34:51.812Z,101058.16
2019-04-20T13:37:26.393Z,101052.94
2019-04-20T13:40:00.775Z,101059.86
2019-04-20T13:42:35.194Z,101059.92
2019-04-20T13:45:12.829Z,101049.98
2019-04-20T13:47:45.840Z,101049.25
2019-04-20T13:53:27.423Z,101042.45
2019-04-20T13:56:23.524Z,101041.39
2019-04-20T13:59:25.893Z,101030.00
2019-04-20T14:02:20.258Z,101032.77
2019-04-20T14:04:59.114Z,101027.66
2019-04-20T14:07:35.568Z,101037.72
2019-04-20T14:10:09.313Z,101018.59
2019-04-20T14:12:57.281Z,101039.35
2019-04-20T14:15:22.837Z,101029.13
2019-04-20T14:17:57.189Z,101032.12
2019-04-20T14:20:31.990Z,101020.70
2019-04-20T14:23:07.399Z,101020.86
2019-04-20T14:25:42.856Z,101020.86
2019-04-20T14:28:17.091Z,101016.51
2019-04-20T14:30:51.968Z,101012.50
2019-04-20T14:33:33.001Z,101002.55
2019-04-20T14:36:08.807Z,101011.55
2019-04-20T14:38:45.362Z,101005.19
2019-04-20T14:41:38.098Z,101007.44
2019-04-20T14:44:16.155Z,100996.25
2019-04-20T14:46:55.897Z,101006.34
2019-04-20T14:49:36.760Z,100999.11
2019-04-20T14:52:11.813Z,100999.20
2019-04-20T14:54:45.644Z,100998.02
2019-04-20T14:57:19.307Z,101001.08
2019-04-20T14:59:56.733Z,101001.08
2019-04-20T15:02:36.285Z,100994.20
2019-04-20T15:05:12.914Z,100987.20
2019-04-20T15:07:50.990Z,100983.21
2019-04-20T15:10:28.906Z,100981.88
2019-04-20T15:13:10.145Z,100978.20
2019-04-20T15:15:50.701Z,100978.20
2019-04-20T15:18:49.113Z,100969.61
2019-04-20T15:21:27.238Z,100969.61
2019-04-20T15:24:03.604Z,100974.52
2019-04-20T15:26:42.557Z,100968.67
2019-04-20T15:29:15.533Z,100968.67
2019-04-20T15:31:50.129Z,100964.16
2019-04-20T15:34:26.755Z,100969.02
2019-04-20T15:37:00.203Z,100964.20
2019-04-20T15:39:34.950Z,100960.61
2019-04-20T15:42:17.111Z,100965.25
2019-04-20T15:44:51.422Z,100961.06
2019-04-20T15:47:25.806Z,100961.12
2019-04-20T15:49:59.904Z,100961.12
2019-04-20T15:52:39.944Z,100949.25
2019-04-20T15:55:18.593Z,100953.21
2019-04-20T15:57:44.816Z,100956.21
2019-04-20T16:00:18.670Z,100948.33
2019-04-20T16:03:21.407Z,100948.33
2019-04-20T16:06:01.210Z,100946.93
2019-04-20T16:08:36.652Z,100946.93
2019-04-20T16:11:11.266Z,100953.11
2019-04-20T16:13:49.908Z,100949.13
2019-04-20T16:16:21.539Z,100951.36
2019-04-20T16:18:55.312Z,100953.06
2019-04-20T16:21:33.514Z,100949.09
2019-04-20T16:24:10.740Z,100947.70
2019-04-20T16:27:11.732Z,100946.42
2019-04-20T16:29:45.053Z,100949.11
2019-04-20T16:32:22.619Z,100948.09
2019-04-20T16:34:58.259Z,100939.41
2019-04-20T16:37:32.718Z,100936.72
2019-04-20T16:40:07.885Z,100939.57
2019-04-20T16:42:44.297Z,100939.31
2019-04-20T16:45:19.132Z,100937.63
2019-04-20T16:47:52.798Z,100929.92
2019-04-20T16:50:26.886Z,100935.94
2019-04-20T16:53:01.124Z,100926.38
2019-04-20T16:55:40.964Z,100927.38
2019-04-20T16:58:13.639Z,100928.59
2019-04-20T17:00:47.668Z,100927.45
2019-04-20T17:03:27.892Z,100926.69
2019-04-20T17:05:59.993Z,100928.75
2019-04-20T17:08:37.069Z,100927.63
2019-04-20T17:11:13.875Z,100920.52
2019-04-20T17:13:50.059Z,100914.84
2019-04-20T17:16:23.821Z,100925.19
2019-04-20T17:18:57.348Z,100921.87
2019-04-20T17:21:32.578Z,100926.47
2019-04-20T17:24:07.046Z,100920.33
2019-04-20T17:26:50.757Z,100927.06
2019-04-20T17:29:30.266Z,100924.01
2019-04-20T17:32:13.670Z,100918.52
2019-04-20T17:35:00.227Z,100923.51
2019-04-20T17:37:24.616Z,100920.20
2019-04-20T17:40:19.119Z,100916.69
2019-04-20T17:42:47.294Z,100915.55
2019-04-20T17:45:28.554Z,100928.56
2019-04-20T17:48:04.679Z,100925.64
2019-04-20T17:50:46.766Z,100923.13
2019-04-20T17:53:28.328Z,100929.81
2019-04-20T17:55:52.807Z,100929.41
2019-04-20T17:58:29.845Z,100926.45
2019-04-20T18:01:57.573Z,100928.84
2019-04-20T18:04:53.775Z,100927.66
2019-04-20T18:07:26.159Z,100924.52
2019-04-20T18:09:59.024Z,100922.53
2019-04-20T18:12:23.253Z,100934.52
2019-04-20T18:15:00.832Z,100923.28
2019-04-20T18:18:00.218Z,100928.17
2019-04-20T18:20:36.830Z,100925.59
2019-04-20T18:23:33.057Z,100926.94
2019-04-20T18:26:17.125Z,100927.68
2019-04-20T18:28:52.908Z,100930.98
2019-04-20T18:31:35.548Z,100929.74
2019-04-20T18:35:06.798Z,100931.39
2019-04-20T18:36:54.645Z,100927.99
2019-04-20T18:39:34.744Z,100928.24
2019-04-20T18:42:12.191Z,100934.19
2019-04-20T18:44:57.318Z,100934.23
2019-04-20T18:47:35.869Z,100935.13
2019-04-20T18:49:58.567Z,100933.92
2019-04-20T18:52:23.993Z,100934.03
2019-04-20T18:54:57.671Z,100932.78
2019-04-20T18:57:33.145Z,100934.63
2019-04-20T19:00:22.757Z,100934.41
2019-04-20T19:02:56.054Z,100929.04
2019-04-20T19:05:29.666Z,100931.36
2019-04-20T19:08:09.341Z,100931.06
2019-04-20T19:10:41.763Z,100936.59
2019-04-20T19:13:26.684Z,100934.61
2019-04-20T19:16:19.691Z,100929.27
2019-04-20T19:19:04.936Z,100937.30
2019-04-20T19:21:26.983Z,100930.46
2019-04-20T19:24:07.577Z,100936.00
2019-04-20T19:26:38.410Z,100936.86
2019-04-20T19:29:22.089Z,100932.17
2019-04-20T19:32:08.825Z,100936.58
2019-04-20T19:34:36.546Z,100941.62
2019-04-20T19:37:13.330Z,100931.80
2019-04-20T19:39:50.743Z,100936.31
2019-04-20T19:42:19.772Z,100934.97
2019-04-20T19:44:58.004Z,100938.04
2019-04-20T19:47:40.974Z,100936.50
2019-04-20T19:50:25.166Z,100930.23
2019-04-20T19:52:57.108Z,100935.00
2019-04-20T19:55:20.752Z,100927.73
2019-04-20T19:57:56.842Z,100936.72
2019-04-20T20:00:16.669Z,100937.03
2019-04-20T20:02:51.956Z,100934.33
2019-04-20T20:05:33.700Z,100927.61
2019-04-20T20:08:06.472Z,100937.44
2019-04-20T20:10:39.376Z,100933.27
2019-04-20T20:13:11.683Z,100931.47
2019-04-20T20:15:52.517Z,100930.73
2019-04-20T20:18:39.231Z,100935.13
2019-04-20T20:21:12.726Z,100936.69
2019-04-20T20:23:34.194Z,100940.64
2019-04-20T20:26:16.493Z,100935.41
2019-04-20T20:28:50.763Z,100935.27
2019-04-20T20:31:29.631Z,100936.77
2019-04-20T20:34:07.303Z,100929.87
2019-04-20T20:36:42.231Z,100928.20
2019-04-20T20:39:15.724Z,100931.97
2019-04-20T20:41:53.343Z,100924.77
2019-04-20T20:44:28.567Z,100931.80
2019-04-20T20:47:00.803Z,100929.50
2019-04-20T20:49:47.051Z,100925.20
2019-04-20T20:52:17.244Z,100931.70
2019-04-20T20:54:49.507Z,100928.56
2019-04-20T20:57:18.246Z,100929.12
2019-04-20T20:59:55.248Z,100926.61
2019-04-20T21:02:33.855Z,100922.42
2019-04-20T21:04:57.859Z,100930.28
2019-04-20T21:07:31.291Z,100921.72
2019-04-20T21:10:06.170Z,100928.16
2019-04-20T21:12:46.471Z,100926.64
2019-04-20T21:15:20.809Z,100930.80
2019-04-20T21:18:15.628Z,100922.50
2019-04-20T21:20:46.476Z,100922.34
2019-04-20T21:23:16.245Z,100917.78
2019-04-20T21:25:47.806Z,100921.36
2019-04-20T21:28:16.042Z,100916.33
2019-04-20T21:30:50.623Z,100918.10
2019-04-20T21:33:29.463Z,100912.80
2019-04-20T21:36:00.890Z,100911.08
2019-04-20T21:38:39.327Z,100912.19
2019-04-20T21:41:15.066Z,100906.98
2019-04-20T21:43:46.409Z,100907.70
2019-04-20T21:46:20.811Z,100908.73
2019-04-20T21:49:08.201Z,100904.52
2019-04-20T21:51:41.830Z,100905.16
2019-04-20T21:54:05.516Z,100899.60
2019-04-20T21:56:48.866Z,100901.35
2019-04-20T21:59:24.130Z,100898.72
2019-04-20T22:01:58.614Z,100897.58
2019-04-20T22:04:27.213Z,100893.14
2019-04-20T22:07:00.575Z,100896.30
2019-04-20T22:09:41.391Z,100889.39
2019-04-20T22:12:11.849Z,100887.65
2019-04-20T22:14:50.932Z,100880.98
2019-04-20T22:17:26.503Z,100879.65
2019-04-20T22:20:07.506Z,100871.02
2019-04-20T22:22:50.817Z,100872.50
2019-04-20T22:25:23.460Z,100864.00
2019-04-20T22:27:42.271Z,100867.50
2019-04-20T22:30:15.577Z,100858.11
2019-04-20T22:32:50.662Z,100859.02
2019-04-20T22:35:26.058Z,100853.59
2019-04-20T22:38:11.984Z,100856.44
2019-04-20T22:40:42.940Z,100857.32
2019-04-20T22:43:23.173Z,100855.18
2019-04-20T22:45:53.836Z,100855.55
2019-04-20T22:48:27.056Z,100857.17
2019-04-20T22:51:32.780Z,100858.10
2019-04-20T22:53:48.613Z,100851.09
2019-04-20T22:56:26.827Z,100849.73
2019-04-20T22:58:59.085Z,100849.73
2019-04-20T23:01:31.044Z,100852.73
2019-04-20T23:03:56.557Z,100854.05
2019-04-20T23:06:35.422Z,100846.90
2019-04-20T23:09:11.706Z,100839.78
2019-04-20T23:11:45.178Z,100839.44
2019-04-20T23:14:18.725Z,100841.05
2019-04-20T23:16:53.827Z,100839.89
2019-04-20T23:19:34.578Z,100840.48
2019-04-20T23:22:05.333Z,100840.48
2019-04-20T23:24:39.243Z,100827.44
2019-04-20T23:27:20.019Z,100837.41
2019-04-20T23:29:47.259Z,100831.52
2019-04-20T23:32:21.318Z,100834.02
2019-04-20T23:34:59.090Z,100823.80
2019-04-20T23:37:33.352Z,100832.99
2019-04-20T23:40:09.197Z,100824.52
2019-04-20T23:42:47.646Z,100824.72
2019-04-20T23:45:44.137Z,100824.16
2019-04-20T23:48:23.639Z,100814.75
2019-04-20T23:51:11.290Z,100812.48
2019-04-20T23:53:45.263Z,100814.62
2019-04-20T23:56:05.914Z,100812.90
2019-04-20T23:58:44.334Z,100814.95
